Pagrindinis puslapis
METAR-TAF:

METAR-TAF

Oro uostai :

Naftos platforma

J6-a, Nyderlandai

platuma: 53-49-27N, ilguma: 2-56-43E, Aukštis: 34 m

Dabartinis oras

Ataskaita buvo paskelbta 18 minutes, ne 09:55 UTC
Vėjas 19 kt iš Šiaurės Vakarų, svyruoja nuo Vakarų ir Šiaurės
Temperatūra 9°C
Drėgmė 71%
Slėgis 990 hPa
Matomumas 10 km arba daugiau
lietus

METAR: EHJA 050955Z AUTO 32019KT 280V350 9999 -SHRA FEW016/// SCT028/// BKN036/// 09/04 Q0990 RERA

Laikas: 12:13 (10:13 UTC)


TAF: trūkstamas

Orai ataskaitas ir orų prognozės (METAR, TAF).

turimą stotys yra geltonos ir raudonos taškus žemėlapyje.

Perkelti pele per norėdami pamatyti stoties vardą.

Tada spustelėkite, norėdami matyti oro stebėjimo ir prognozės.

Norėdami pakeisti žemėlapį: spustelėkite ant žalios mygtukų su juodo kryžiaus žemyn,; žalią mygtuką su brūkšneliu, jei norite nutolinti; arba žalių rodyklių gretimoms žemėlapius.


METAR-TAF: